Portel — CSSV — position and weather

sailwx.info

Track history (hours):
 
Tides and Currents Weather Stations Pressure Air Temp Water Temp Dewpoint Dewpoint Depression Visibility Wind Speed Wind Dir Waves Ship Positions

Portel

Last reported at 2018-Aug-17 07:12 UTC. Time now 2018-Aug-19 15:20 UTC.
Position N 38°42' W 009°10'.

Length 33 m.

Type: Tug. MMSI: 263600007.

Date/timePositionNaut miles runAvg speedWind from/ knotsBaromVisibWave heightAir tempDewpointWater temp
2018-Aug-17 07:12N 38°42' W 009°10'0 1.3
2018-Aug-17 06:49N 38°42' W 009°10'1 3.0
2018-Aug-17 06:30N 38°41' W 009°11'1 0.1
2018-Aug-16 19:00N 38°42' W 009°10'2 1.3
2018-Aug-16 17:48N 38°41' W 009°11'2 0.2
2018-Aug-16 07:10N 38°42' W 009°09'210.8
2018-Aug-16 07:00N 38°41' W 009°11'0 0.2
2018-Aug-16 06:19N 38°41' W 009°11'1 2.3
2018-Aug-16 06:00N 38°41' W 009°12'1 1.3
2018-Aug-16 05:28N 38°41' W 009°11'  
2018-Aug-11 09:26N 38°42' W 009°09'4 9.2
2018-Aug-11 08:59N 38°41' W 009°14'0 0.2
2018-Aug-11 08:26N 38°41' W 009°14'1 1.2
2018-Aug-11 08:00N 38°41' W 009°15'0 0.7
2018-Aug-11 07:30N 38°41' W 009°14'4 6.6
2018-Aug-11 06:55N 38°42' W 009°10'0 0.0
2018-Aug-09 13:50N 38°42' W 009°10'2 5.2
2018-Aug-09 13:30N 38°41' W 009°11'0 0.1
2018-Aug-09 12:54N 38°41' W 009°11'1 1.5
2018-Aug-09 12:10N 38°41' W 009°12'0 0.7
2018-Aug-09 11:49N 38°41' W 009°12'1 3.5
2018-Aug-09 11:27N 38°41' W 009°11'1 1.3
2018-Aug-09 10:32N 38°42' W 009°10'0 0.0
2018-Aug-09 09:38N 38°42' W 009°10'0 2.9
2018-Aug-09 09:29N 38°42' W 009°10'1 1.8
2018-Aug-09 08:52N 38°41' W 009°11'2 0.2
2018-Aug-08 21:14N 38°42' W 009°09'3 4.0
2018-Aug-08 20:32N 38°44' W 009°06'1 2.8
2018-Aug-08 20:08N 38°43' W 009°07'111.7
2018-Aug-08 20:00N 38°42' W 009°08'1 0.0
2018-Aug-07 15:10N 38°42' W 009°09'0 0.0
2018-Aug-07 14:11N 38°42' W 009°09'  
Track history (hours):
 
Tides and Currents Weather Stations Pressure Air Temp Water Temp Dewpoint Dewpoint Depression Visibility Wind Speed Wind Dir Waves Ship Positions

Portel

Last reported at 2018-Aug-17 07:12 UTC. Time now 2018-Aug-19 15:20 UTC.
Position N 38°42' W 009°10'.

Length 33 m.

Type: Tug. MMSI: 263600007.

Date/timePositionNaut miles runAvg speedWind from/ knotsBaromVisibWave heightAir tempDewpointWater temp
2018-Aug-17 07:12N 38°42' W 009°10'0 1.3
2018-Aug-17 06:49N 38°42' W 009°10'1 3.0
2018-Aug-17 06:30N 38°41' W 009°11'1 0.1
2018-Aug-16 19:00N 38°42' W 009°10'2 1.3
2018-Aug-16 17:48N 38°41' W 009°11'2 0.2
2018-Aug-16 07:10N 38°42' W 009°09'210.8
2018-Aug-16 07:00N 38°41' W 009°11'0 0.2
2018-Aug-16 06:19N 38°41' W 009°11'1 2.3
2018-Aug-16 06:00N 38°41' W 009°12'1 1.3
2018-Aug-16 05:28N 38°41' W 009°11'  
2018-Aug-11 09:26N 38°42' W 009°09'4 9.2
2018-Aug-11 08:59N 38°41' W 009°14'0 0.2
2018-Aug-11 08:26N 38°41' W 009°14'1 1.2
2018-Aug-11 08:00N 38°41' W 009°15'0 0.7
2018-Aug-11 07:30N 38°41' W 009°14'4 6.6
2018-Aug-11 06:55N 38°42' W 009°10'0 0.0
2018-Aug-09 13:50N 38°42' W 009°10'2 5.2
2018-Aug-09 13:30N 38°41' W 009°11'0 0.1
2018-Aug-09 12:54N 38°41' W 009°11'1 1.5
2018-Aug-09 12:10N 38°41' W 009°12'0 0.7
2018-Aug-09 11:49N 38°41' W 009°12'1 3.5
2018-Aug-09 11:27N 38°41' W 009°11'1 1.3
2018-Aug-09 10:32N 38°42' W 009°10'0 0.0
2018-Aug-09 09:38N 38°42' W 009°10'0 2.9
2018-Aug-09 09:29N 38°42' W 009°10'1 1.8
2018-Aug-09 08:52N 38°41' W 009°11'2 0.2
2018-Aug-08 21:14N 38°42' W 009°09'3 4.0
2018-Aug-08 20:32N 38°44' W 009°06'1 2.8
2018-Aug-08 20:08N 38°43' W 009°07'111.7
2018-Aug-08 20:00N 38°42' W 009°08'1 0.0
2018-Aug-07 15:10N 38°42' W 009°09'0 0.0
2018-Aug-07 14:11N 38°42' W 009°09'  

Dump ship's entire track history